sensor_id;sensor_type;location;lat;lon;timestamp;P1;durP1;ratioP1;P2;durP2;ratioP2
23866;SDS011;12114;53.404;-1.502;2023-08-06T00:00:38;7.07;;;3.20;;
23866;SDS011;12114;53.404;-1.502;2023-08-06T00:03:22;5.68;;;3.95;;
23866;SDS011;12114;53.404;-1.502;2023-08-06T00:06:06;9.90;;;3.40;;
23866;SDS011;12114;53.404;-1.502;2023-08-06T00:08:50;7.57;;;3.78;;
23866;SDS011;12114;53.404;-1.502;2023-08-06T00:11:34;8.95;;;3.90;;
23866;SDS011;12114;53.404;-1.502;2023-08-06T00:14:18;6.63;;;3.45;;
23866;SDS011;12114;53.404;-1.502;2023-08-06T00:17:02;11.82;;;3.55;;
23866;SDS011;12114;53.404;-1.502;2023-08-06T00:19:46;6.13;;;2.95;;
23866;SDS011;12114;53.404;-1.502;2023-08-06T00:22:34;5.55;;;3.50;;
23866;SDS011;12114;53.404;-1.502;2023-08-06T00:25:19;10.15;;;3.45;;
23866;SDS011;12114;53.404;-1.502;2023-08-06T00:28:03;8.48;;;4.05;;
23866;SDS011;12114;53.404;-1.502;2023-08-06T00:30:54;9.50;;;4.45;;
23866;SDS011;12114;53.404;-1.502;2023-08-06T00:33:38;5.97;;;3.17;;
23866;SDS011;12114;53.404;-1.502;2023-08-06T00:36:22;6.75;;;3.63;;
23866;SDS011;12114;53.404;-1.502;2023-08-06T00:39:06;6.35;;;3.80;;
23866;SDS011;12114;53.404;-1.502;2023-08-06T00:41:50;7.60;;;3.88;;
23866;SDS011;12114;53.404;-1.502;2023-08-06T00:44:34;6.72;;;3.22;;
23866;SDS011;12114;53.404;-1.502;2023-08-06T00:47:18;6.82;;;3.95;;
23866;SDS011;12114;53.404;-1.502;2023-08-06T00:50:03;8.68;;;3.83;;
23866;SDS011;12114;53.404;-1.502;2023-08-06T00:52:47;9.05;;;3.85;;
23866;SDS011;12114;53.404;-1.502;2023-08-06T00:55:31;6.13;;;3.70;;
23866;SDS011;12114;53.404;-1.502;2023-08-06T00:58:15;6.20;;;3.38;;
23866;SDS011;12114;53.404;-1.502;2023-08-06T01:00:59;9.75;;;4.43;;
23866;SDS011;12114;53.404;-1.502;2023-08-06T01:03:43;6.15;;;3.95;;
23866;SDS011;12114;53.404;-1.502;2023-08-06T01:06:47;9.68;;;3.53;;
23866;SDS011;12114;53.404;-1.502;2023-08-06T01:12:29;7.50;;;3.67;;
23866;SDS011;12114;53.404;-1.502;2023-08-06T01:15:22;7.57;;;3.67;;
23866;SDS011;12114;53.404;-1.502;2023-08-06T01:18:08;7.75;;;3.70;;
23866;SDS011;12114;53.404;-1.502;2023-08-06T01:20:52;8.23;;;3.85;;
23866;SDS011;12114;53.404;-1.502;2023-08-06T01:23:36;7.97;;;3.85;;
23866;SDS011;12114;53.404;-1.502;2023-08-06T01:26:24;7.65;;;3.75;;
23866;SDS011;12114;53.404;-1.502;2023-08-06T01:32:04;7.68;;;4.07;;
23866;SDS011;12114;53.404;-1.502;2023-08-06T01:34:48;5.72;;;3.67;;
23866;SDS011;12114;53.404;-1.502;2023-08-06T01:37:33;7.63;;;4.30;;
23866;SDS011;12114;53.404;-1.502;2023-08-06T01:40:17;10.85;;;3.95;;
23866;SDS011;12114;53.404;-1.502;2023-08-06T01:43:01;8.43;;;3.75;;
23866;SDS011;12114;53.404;-1.502;2023-08-06T01:45:45;7.47;;;3.90;;
23866;SDS011;12114;53.404;-1.502;2023-08-06T01:48:29;7.32;;;3.97;;
23866;SDS011;12114;53.404;-1.502;2023-08-06T01:51:13;7.53;;;3.60;;
23866;SDS011;12114;53.404;-1.502;2023-08-06T01:53:57;10.15;;;4.18;;
23866;SDS011;12114;53.404;-1.502;2023-08-06T01:56:41;7.82;;;4.05;;
23866;SDS011;12114;53.404;-1.502;2023-08-06T01:59:25;8.88;;;4.07;;
23866;SDS011;12114;53.404;-1.502;2023-08-06T02:02:09;5.60;;;3.85;;
23866;SDS011;12114;53.404;-1.502;2023-08-06T02:04:53;8.80;;;4.50;;
23866;SDS011;12114;53.404;-1.502;2023-08-06T02:07:37;8.07;;;3.90;;
23866;SDS011;12114;53.404;-1.502;2023-08-06T02:10:21;5.97;;;3.63;;
23866;SDS011;12114;53.404;-1.502;2023-08-06T02:13:05;8.15;;;4.18;;
23866;SDS011;12114;53.404;-1.502;2023-08-06T02:15:49;8.18;;;3.80;;
23866;SDS011;12114;53.404;-1.502;2023-08-06T02:18:33;8.55;;;4.22;;
23866;SDS011;12114;53.404;-1.502;2023-08-06T02:21:17;9.15;;;3.90;;
23866;SDS011;12114;53.404;-1.502;2023-08-06T02:24:01;7.93;;;3.75;;
23866;SDS011;12114;53.404;-1.502;2023-08-06T02:26:45;7.70;;;3.97;;
23866;SDS011;12114;53.404;-1.502;2023-08-06T02:29:30;7.93;;;3.60;;
23866;SDS011;12114;53.404;-1.502;2023-08-06T02:32:14;7.50;;;3.53;;
23866;SDS011;12114;53.404;-1.502;2023-08-06T02:34:58;8.52;;;3.90;;
23866;SDS011;12114;53.404;-1.502;2023-08-06T02:37:42;7.05;;;3.83;;
23866;SDS011;12114;53.404;-1.502;2023-08-06T02:40:25;6.78;;;3.58;;
23866;SDS011;12114;53.404;-1.502;2023-08-06T02:43:09;6.80;;;3.50;;
23866;SDS011;12114;53.404;-1.502;2023-08-06T02:45:56;7.85;;;4.05;;
23866;SDS011;12114;53.404;-1.502;2023-08-06T02:48:40;9.13;;;4.40;;
23866;SDS011;12114;53.404;-1.502;2023-08-06T02:51:24;7.93;;;4.32;;
23866;SDS011;12114;53.404;-1.502;2023-08-06T02:54:08;8.60;;;4.10;;
23866;SDS011;12114;53.404;-1.502;2023-08-06T02:56:52;9.52;;;4.15;;
23866;SDS011;12114;53.404;-1.502;2023-08-06T02:59:36;7.13;;;3.83;;
23866;SDS011;12114;53.404;-1.502;2023-08-06T03:02:20;6.85;;;3.78;;
23866;SDS011;12114;53.404;-1.502;2023-08-06T03:05:04;8.98;;;4.38;;
23866;SDS011;12114;53.404;-1.502;2023-08-06T03:10:34;6.53;;;3.70;;
23866;SDS011;12114;53.404;-1.502;2023-08-06T03:13:18;9.85;;;3.92;;
23866;SDS011;12114;53.404;-1.502;2023-08-06T03:16:02;7.28;;;3.72;;
23866;SDS011;12114;53.404;-1.502;2023-08-06T03:18:46;6.13;;;3.67;;
23866;SDS011;12114;53.404;-1.502;2023-08-06T03:21:30;8.80;;;4.25;;
23866;SDS011;12114;53.404;-1.502;2023-08-06T03:24:14;10.13;;;4.07;;
23866;SDS011;12114;53.404;-1.502;2023-08-06T03:26:58;6.72;;;3.72;;
23866;SDS011;12114;53.404;-1.502;2023-08-06T03:29:42;9.32;;;3.33;;
23866;SDS011;12114;53.404;-1.502;2023-08-06T03:32:26;9.45;;;4.10;;
23866;SDS011;12114;53.404;-1.502;2023-08-06T03:35:10;6.20;;;3.42;;
23866;SDS011;12114;53.404;-1.502;2023-08-06T03:37:54;5.80;;;3.38;;
23866;SDS011;12114;53.404;-1.502;2023-08-06T03:40:38;6.13;;;3.05;;
23866;SDS011;12114;53.404;-1.502;2023-08-06T03:43:21;5.80;;;3.80;;
23866;SDS011;12114;53.404;-1.502;2023-08-06T03:46:05;7.15;;;3.40;;
23866;SDS011;12114;53.404;-1.502;2023-08-06T03:48:49;10.68;;;3.50;;
23866;SDS011;12114;53.404;-1.502;2023-08-06T03:51:33;8.02;;;3.47;;
23866;SDS011;12114;53.404;-1.502;2023-08-06T03:54:17;4.55;;;2.90;;
23866;SDS011;12114;53.404;-1.502;2023-08-06T03:57:01;6.22;;;3.78;;
23866;SDS011;12114;53.404;-1.502;2023-08-06T03:59:45;6.03;;;3.17;;
23866;SDS011;12114;53.404;-1.502;2023-08-06T04:02:29;5.72;;;3.38;;
23866;SDS011;12114;53.404;-1.502;2023-08-06T04:05:13;7.07;;;3.38;;
23866;SDS011;12114;53.404;-1.502;2023-08-06T04:07:57;6.07;;;3.35;;
23866;SDS011;12114;53.404;-1.502;2023-08-06T04:10:41;4.95;;;3.35;;
23866;SDS011;12114;53.404;-1.502;2023-08-06T04:13:25;7.22;;;3.92;;
23866;SDS011;12114;53.404;-1.502;2023-08-06T04:16:09;6.72;;;3.65;;
23866;SDS011;12114;53.404;-1.502;2023-08-06T04:18:54;9.57;;;3.42;;
23866;SDS011;12114;53.404;-1.502;2023-08-06T04:21:39;6.60;;;3.67;;
23866;SDS011;12114;53.404;-1.502;2023-08-06T04:24:23;5.78;;;3.60;;
23866;SDS011;12114;53.404;-1.502;2023-08-06T04:27:07;9.18;;;4.05;;
23866;SDS011;12114;53.404;-1.502;2023-08-06T04:29:51;6.03;;;3.42;;
23866;SDS011;12114;53.404;-1.502;2023-08-06T04:32:35;7.05;;;3.17;;
23866;SDS011;12114;53.404;-1.502;2023-08-06T04:35:19;6.60;;;3.42;;
23866;SDS011;12114;53.404;-1.502;2023-08-06T04:38:03;4.85;;;3.10;;
23866;SDS011;12114;53.404;-1.502;2023-08-06T04:40:47;7.53;;;3.67;;
23866;SDS011;12114;53.404;-1.502;2023-08-06T04:43:31;6.28;;;3.53;;
23866;SDS011;12114;53.404;-1.502;2023-08-06T04:46:14;6.13;;;3.50;;
23866;SDS011;12114;53.404;-1.502;2023-08-06T04:48:58;5.50;;;3.22;;
23866;SDS011;12114;53.404;-1.502;2023-08-06T04:51:43;6.43;;;3.20;;
23866;SDS011;12114;53.404;-1.502;2023-08-06T04:54:27;7.90;;;3.65;;
23866;SDS011;12114;53.404;-1.502;2023-08-06T04:57:11;6.03;;;3.42;;
23866;SDS011;12114;53.404;-1.502;2023-08-06T04:59:54;7.18;;;3.35;;
23866;SDS011;12114;53.404;-1.502;2023-08-06T05:02:40;5.03;;;3.00;;
23866;SDS011;12114;53.404;-1.502;2023-08-06T05:05:25;5.43;;;3.33;;
23866;SDS011;12114;53.404;-1.502;2023-08-06T05:08:13;4.50;;;2.80;;
23866;SDS011;12114;53.404;-1.502;2023-08-06T05:10:57;5.50;;;3.13;;
23866;SDS011;12114;53.404;-1.502;2023-08-06T05:13:41;5.05;;;2.88;;
23866;SDS011;12114;53.404;-1.502;2023-08-06T05:16:24;4.95;;;3.45;;
23866;SDS011;12114;53.404;-1.502;2023-08-06T05:19:08;8.18;;;3.40;;
23866;SDS011;12114;53.404;-1.502;2023-08-06T05:21:52;6.28;;;3.38;;
23866;SDS011;12114;53.404;-1.502;2023-08-06T05:24:36;6.05;;;3.42;;
23866;SDS011;12114;53.404;-1.502;2023-08-06T05:27:20;5.72;;;3.50;;
23866;SDS011;12114;53.404;-1.502;2023-08-06T05:30:04;4.93;;;3.40;;
23866;SDS011;12114;53.404;-1.502;2023-08-06T05:32:48;6.72;;;3.10;;
23866;SDS011;12114;53.404;-1.502;2023-08-06T05:35:32;5.63;;;3.22;;
23866;SDS011;12114;53.404;-1.502;2023-08-06T05:38:16;5.03;;;2.95;;
23866;SDS011;12114;53.404;-1.502;2023-08-06T05:41:01;5.10;;;3.05;;
23866;SDS011;12114;53.404;-1.502;2023-08-06T05:43:45;8.10;;;3.58;;
23866;SDS011;12114;53.404;-1.502;2023-08-06T05:46:28;6.18;;;3.08;;
23866;SDS011;12114;53.404;-1.502;2023-08-06T05:49:13;8.07;;;3.42;;
23866;SDS011;12114;53.404;-1.502;2023-08-06T05:51:57;6.78;;;2.95;;
23866;SDS011;12114;53.404;-1.502;2023-08-06T05:54:41;3.80;;;2.65;;
23866;SDS011;12114;53.404;-1.502;2023-08-06T05:57:25;5.60;;;3.10;;
23866;SDS011;12114;53.404;-1.502;2023-08-06T06:00:09;3.38;;;2.53;;
23866;SDS011;12114;53.404;-1.502;2023-08-06T06:02:53;5.45;;;2.60;;
23866;SDS011;12114;53.404;-1.502;2023-08-06T06:05:37;4.78;;;2.60;;
23866;SDS011;12114;53.404;-1.502;2023-08-06T06:08:21;7.40;;;3.10;;
23866;SDS011;12114;53.404;-1.502;2023-08-06T06:11:05;4.82;;;2.53;;
23866;SDS011;12114;53.404;-1.502;2023-08-06T06:13:50;3.78;;;2.65;;
23866;SDS011;12114;53.404;-1.502;2023-08-06T06:16:34;4.60;;;2.70;;
23866;SDS011;12114;53.404;-1.502;2023-08-06T06:19:19;6.28;;;2.30;;
23866;SDS011;12114;53.404;-1.502;2023-08-06T06:22:03;5.55;;;2.60;;
23866;SDS011;12114;53.404;-1.502;2023-08-06T06:24:47;5.57;;;2.50;;
23866;SDS011;12114;53.404;-1.502;2023-08-06T06:27:31;4.35;;;2.20;;
23866;SDS011;12114;53.404;-1.502;2023-08-06T06:30:14;3.42;;;2.10;;
23866;SDS011;12114;53.404;-1.502;2023-08-06T06:32:58;5.07;;;2.78;;
23866;SDS011;12114;53.404;-1.502;2023-08-06T06:35:42;4.57;;;2.30;;
23866;SDS011;12114;53.404;-1.502;2023-08-06T06:38:26;4.38;;;2.15;;
23866;SDS011;12114;53.404;-1.502;2023-08-06T06:41:10;5.13;;;2.65;;
23866;SDS011;12114;53.404;-1.502;2023-08-06T06:43:55;4.32;;;2.17;;
23866;SDS011;12114;53.404;-1.502;2023-08-06T06:46:38;5.32;;;2.20;;
23866;SDS011;12114;53.404;-1.502;2023-08-06T06:49:22;5.75;;;2.03;;
23866;SDS011;12114;53.404;-1.502;2023-08-06T06:52:06;4.28;;;2.17;;
23866;SDS011;12114;53.404;-1.502;2023-08-06T06:54:50;3.75;;;2.40;;
23866;SDS011;12114;53.404;-1.502;2023-08-06T06:57:34;3.50;;;2.03;;
23866;SDS011;12114;53.404;-1.502;2023-08-06T07:00:18;3.65;;;1.75;;
23866;SDS011;12114;53.404;-1.502;2023-08-06T07:03:02;10.68;;;2.28;;
23866;SDS011;12114;53.404;-1.502;2023-08-06T07:05:46;3.42;;;1.75;;
23866;SDS011;12114;53.404;-1.502;2023-08-06T07:08:30;5.18;;;2.05;;
23866;SDS011;12114;53.404;-1.502;2023-08-06T07:11:14;6.47;;;2.35;;
23866;SDS011;12114;53.404;-1.502;2023-08-06T07:13:58;4.03;;;2.03;;
23866;SDS011;12114;53.404;-1.502;2023-08-06T07:16:42;3.50;;;2.00;;
23866;SDS011;12114;53.404;-1.502;2023-08-06T07:19:26;5.05;;;2.30;;
23866;SDS011;12114;53.404;-1.502;2023-08-06T07:22:10;3.63;;;2.20;;
23866;SDS011;12114;53.404;-1.502;2023-08-06T07:24:54;5.10;;;1.60;;
23866;SDS011;12114;53.404;-1.502;2023-08-06T07:27:38;4.80;;;2.35;;
23866;SDS011;12114;53.404;-1.502;2023-08-06T07:30:22;3.22;;;1.45;;
23866;SDS011;12114;53.404;-1.502;2023-08-06T07:33:06;5.55;;;1.90;;
23866;SDS011;12114;53.404;-1.502;2023-08-06T07:35:50;2.50;;;1.90;;
23866;SDS011;12114;53.404;-1.502;2023-08-06T07:38:34;4.40;;;1.63;;
23866;SDS011;12114;53.404;-1.502;2023-08-06T07:41:18;2.83;;;1.30;;
23866;SDS011;12114;53.404;-1.502;2023-08-06T07:44:02;3.72;;;1.95;;
23866;SDS011;12114;53.404;-1.502;2023-08-06T07:46:46;3.90;;;2.13;;
23866;SDS011;12114;53.404;-1.502;2023-08-06T07:49:30;3.42;;;1.70;;
23866;SDS011;12114;53.404;-1.502;2023-08-06T07:52:13;3.80;;;1.83;;
23866;SDS011;12114;53.404;-1.502;2023-08-06T07:54:57;4.82;;;2.03;;
23866;SDS011;12114;53.404;-1.502;2023-08-06T07:57:42;4.28;;;1.80;;
23866;SDS011;12114;53.404;-1.502;2023-08-06T08:00:26;3.20;;;1.70;;
23866;SDS011;12114;53.404;-1.502;2023-08-06T08:03:10;3.08;;;1.70;;
23866;SDS011;12114;53.404;-1.502;2023-08-06T08:05:54;3.53;;;2.03;;
23866;SDS011;12114;53.404;-1.502;2023-08-06T08:08:41;2.78;;;1.92;;
23866;SDS011;12114;53.404;-1.502;2023-08-06T08:11:25;2.85;;;1.60;;
23866;SDS011;12114;53.404;-1.502;2023-08-06T08:14:09;3.10;;;1.60;;
23866;SDS011;12114;53.404;-1.502;2023-08-06T08:16:53;3.25;;;2.05;;
23866;SDS011;12114;53.404;-1.502;2023-08-06T08:19:37;4.72;;;2.00;;
23866;SDS011;12114;53.404;-1.502;2023-08-06T08:22:21;3.53;;;1.50;;
23866;SDS011;12114;53.404;-1.502;2023-08-06T08:25:05;4.13;;;1.80;;
23866;SDS011;12114;53.404;-1.502;2023-08-06T08:27:49;2.70;;;1.52;;
23866;SDS011;12114;53.404;-1.502;2023-08-06T08:30:33;3.45;;;1.90;;
23866;SDS011;12114;53.404;-1.502;2023-08-06T08:33:17;2.70;;;1.70;;
23866;SDS011;12114;53.404;-1.502;2023-08-06T08:36:01;2.08;;;1.33;;
23866;SDS011;12114;53.404;-1.502;2023-08-06T08:38:45;5.00;;;1.70;;
23866;SDS011;12114;53.404;-1.502;2023-08-06T08:41:29;3.65;;;1.73;;
23866;SDS011;12114;53.404;-1.502;2023-08-06T08:44:13;2.67;;;1.60;;
23866;SDS011;12114;53.404;-1.502;2023-08-06T08:46:59;2.80;;;2.00;;
23866;SDS011;12114;53.404;-1.502;2023-08-06T08:49:44;2.58;;;1.60;;
23866;SDS011;12114;53.404;-1.502;2023-08-06T08:52:28;3.75;;;2.20;;
23866;SDS011;12114;53.404;-1.502;2023-08-06T08:55:14;3.60;;;1.65;;
23866;SDS011;12114;53.404;-1.502;2023-08-06T08:58:00;4.72;;;1.67;;
23866;SDS011;12114;53.404;-1.502;2023-08-06T09:00:45;2.97;;;1.95;;
23866;SDS011;12114;53.404;-1.502;2023-08-06T09:03:29;3.33;;;1.50;;
23866;SDS011;12114;53.404;-1.502;2023-08-06T09:06:13;5.03;;;2.00;;
23866;SDS011;12114;53.404;-1.502;2023-08-06T09:09:04;5.82;;;1.90;;
23866;SDS011;12114;53.404;-1.502;2023-08-06T09:11:50;3.45;;;1.60;;
23866;SDS011;12114;53.404;-1.502;2023-08-06T09:14:35;2.97;;;1.58;;
23866;SDS011;12114;53.404;-1.502;2023-08-06T09:17:19;3.90;;;1.63;;
23866;SDS011;12114;53.404;-1.502;2023-08-06T09:20:12;2.95;;;1.45;;
23866;SDS011;12114;53.404;-1.502;2023-08-06T09:22:57;3.22;;;1.70;;
23866;SDS011;12114;53.404;-1.502;2023-08-06T09:25:41;2.95;;;1.42;;
23866;SDS011;12114;53.404;-1.502;2023-08-06T09:28:37;2.28;;;1.52;;
23866;SDS011;12114;53.404;-1.502;2023-08-06T09:31:33;3.95;;;1.77;;
23866;SDS011;12114;53.404;-1.502;2023-08-06T09:34:23;3.38;;;1.50;;
23866;SDS011;12114;53.404;-1.502;2023-08-06T09:37:08;2.80;;;1.42;;
23866;SDS011;12114;53.404;-1.502;2023-08-06T09:39:52;2.78;;;1.70;;
23866;SDS011;12114;53.404;-1.502;2023-08-06T09:42:37;2.53;;;1.25;;
23866;SDS011;12114;53.404;-1.502;2023-08-06T09:45:21;3.22;;;1.58;;
23866;SDS011;12114;53.404;-1.502;2023-08-06T09:48:06;4.85;;;1.63;;
23866;SDS011;12114;53.404;-1.502;2023-08-06T09:50:51;5.15;;;1.67;;
23866;SDS011;12114;53.404;-1.502;2023-08-06T09:53:35;2.20;;;1.30;;
23866;SDS011;12114;53.404;-1.502;2023-08-06T09:56:20;3.28;;;1.73;;
23866;SDS011;12114;53.404;-1.502;2023-08-06T09:59:04;2.35;;;1.50;;
23866;SDS011;12114;53.404;-1.502;2023-08-06T10:01:49;3.43;;;1.50;;
23866;SDS011;12114;53.404;-1.502;2023-08-06T10:04:33;2.58;;;1.50;;
23866;SDS011;12114;53.404;-1.502;2023-08-06T10:07:17;2.17;;;1.55;;
23866;SDS011;12114;53.404;-1.502;2023-08-06T10:10:02;4.80;;;1.40;;
23866;SDS011;12114;53.404;-1.502;2023-08-06T10:12:48;1.98;;;1.42;;
23866;SDS011;12114;53.404;-1.502;2023-08-06T10:15:32;2.45;;;1.40;;
23866;SDS011;12114;53.404;-1.502;2023-08-06T10:18:16;2.80;;;1.60;;
23866;SDS011;12114;53.404;-1.502;2023-08-06T10:21:07;2.92;;;1.33;;
23866;SDS011;12114;53.404;-1.502;2023-08-06T10:23:54;4.80;;;1.60;;
23866;SDS011;12114;53.404;-1.502;2023-08-06T10:26:38;2.63;;;1.60;;
23866;SDS011;12114;53.404;-1.502;2023-08-06T10:29:35;2.15;;;1.55;;
23866;SDS011;12114;53.404;-1.502;2023-08-06T10:32:18;2.88;;;1.60;;
23866;SDS011;12114;53.404;-1.502;2023-08-06T10:35:02;2.45;;;1.45;;
23866;SDS011;12114;53.404;-1.502;2023-08-06T10:37:46;2.50;;;1.13;;
23866;SDS011;12114;53.404;-1.502;2023-08-06T10:40:31;2.35;;;1.50;;
23866;SDS011;12114;53.404;-1.502;2023-08-06T10:43:28;3.90;;;1.35;;
23866;SDS011;12114;53.404;-1.502;2023-08-06T10:46:23;1.83;;;1.30;;
23866;SDS011;12114;53.404;-1.502;2023-08-06T10:49:07;2.33;;;1.33;;
23866;SDS011;12114;53.404;-1.502;2023-08-06T10:51:51;2.63;;;1.40;;
23866;SDS011;12114;53.404;-1.502;2023-08-06T10:54:35;3.38;;;1.50;;
23866;SDS011;12114;53.404;-1.502;2023-08-06T10:57:19;2.22;;;1.45;;
23866;SDS011;12114;53.404;-1.502;2023-08-06T11:00:04;3.35;;;1.80;;
23866;SDS011;12114;53.404;-1.502;2023-08-06T11:02:48;2.90;;;1.40;;
23866;SDS011;12114;53.404;-1.502;2023-08-06T11:05:32;2.28;;;1.15;;
23866;SDS011;12114;53.404;-1.502;2023-08-06T11:08:26;3.05;;;1.75;;
23866;SDS011;12114;53.404;-1.502;2023-08-06T11:11:11;4.35;;;1.70;;
23866;SDS011;12114;53.404;-1.502;2023-08-06T11:13:56;5.78;;;1.63;;
23866;SDS011;12114;53.404;-1.502;2023-08-06T11:16:40;2.22;;;1.10;;
23866;SDS011;12114;53.404;-1.502;2023-08-06T11:19:24;2.05;;;1.23;;
23866;SDS011;12114;53.404;-1.502;2023-08-06T11:22:08;3.10;;;1.58;;
23866;SDS011;12114;53.404;-1.502;2023-08-06T11:24:53;1.95;;;1.40;;
23866;SDS011;12114;53.404;-1.502;2023-08-06T11:27:37;1.50;;;1.05;;
23866;SDS011;12114;53.404;-1.502;2023-08-06T11:30:21;2.92;;;1.30;;
23866;SDS011;12114;53.404;-1.502;2023-08-06T11:33:06;1.40;;;1.15;;
23866;SDS011;12114;53.404;-1.502;2023-08-06T11:35:51;3.65;;;1.13;;
23866;SDS011;12114;53.404;-1.502;2023-08-06T11:38:35;1.85;;;1.10;;
23866;SDS011;12114;53.404;-1.502;2023-08-06T11:41:19;4.28;;;1.30;;
23866;SDS011;12114;53.404;-1.502;2023-08-06T11:44:03;1.52;;;0.95;;
23866;SDS011;12114;53.404;-1.502;2023-08-06T11:46:51;3.20;;;1.17;;
23866;SDS011;12114;53.404;-1.502;2023-08-06T11:52:30;1.45;;;1.00;;
23866;SDS011;12114;53.404;-1.502;2023-08-06T11:55:14;2.28;;;1.10;;
23866;SDS011;12114;53.404;-1.502;2023-08-06T11:58:02;7.93;;;1.02;;
23866;SDS011;12114;53.404;-1.502;2023-08-06T12:00:46;2.42;;;0.90;;
23866;SDS011;12114;53.404;-1.502;2023-08-06T12:03:30;2.45;;;1.10;;
23866;SDS011;12114;53.404;-1.502;2023-08-06T12:06:15;1.50;;;0.90;;
23866;SDS011;12114;53.404;-1.502;2023-08-06T12:08:59;2.03;;;1.23;;
23866;SDS011;12114;53.404;-1.502;2023-08-06T12:11:43;3.35;;;1.15;;
23866;SDS011;12114;53.404;-1.502;2023-08-06T12:14:27;2.00;;;1.00;;
23866;SDS011;12114;53.404;-1.502;2023-08-06T12:17:11;1.50;;;1.08;;
23866;SDS011;12114;53.404;-1.502;2023-08-06T12:19:55;1.55;;;0.90;;
23866;SDS011;12114;53.404;-1.502;2023-08-06T12:22:39;2.90;;;1.20;;
23866;SDS011;12114;53.404;-1.502;2023-08-06T12:25:23;2.38;;;1.10;;
23866;SDS011;12114;53.404;-1.502;2023-08-06T12:28:08;1.40;;;0.98;;
23866;SDS011;12114;53.404;-1.502;2023-08-06T12:30:53;2.40;;;0.90;;
23866;SDS011;12114;53.404;-1.502;2023-08-06T12:33:39;0.80;;;0.70;;
23866;SDS011;12114;53.404;-1.502;2023-08-06T12:36:23;2.00;;;1.10;;
23866;SDS011;12114;53.404;-1.502;2023-08-06T12:39:07;1.00;;;0.80;;
23866;SDS011;12114;53.404;-1.502;2023-08-06T12:41:51;1.95;;;1.10;;
23866;SDS011;12114;53.404;-1.502;2023-08-06T12:44:35;2.17;;;1.05;;
23866;SDS011;12114;53.404;-1.502;2023-08-06T12:47:19;1.60;;;0.98;;
23866;SDS011;12114;53.404;-1.502;2023-08-06T12:50:03;1.67;;;0.95;;
23866;SDS011;12114;53.404;-1.502;2023-08-06T12:52:47;1.13;;;0.90;;
23866;SDS011;12114;53.404;-1.502;2023-08-06T12:55:31;2.05;;;1.20;;
23866;SDS011;12114;53.404;-1.502;2023-08-06T12:58:15;2.47;;;1.00;;
23866;SDS011;12114;53.404;-1.502;2023-08-06T13:00:59;2.83;;;1.02;;
23866;SDS011;12114;53.404;-1.502;2023-08-06T13:03:43;2.50;;;1.00;;
23866;SDS011;12114;53.404;-1.502;2023-08-06T13:06:27;2.17;;;1.20;;
23866;SDS011;12114;53.404;-1.502;2023-08-06T13:09:11;1.83;;;1.25;;
23866;SDS011;12114;53.404;-1.502;2023-08-06T13:11:55;2.42;;;1.35;;
23866;SDS011;12114;53.404;-1.502;2023-08-06T13:14:39;1.60;;;1.10;;
23866;SDS011;12114;53.404;-1.502;2023-08-06T13:17:23;2.38;;;1.00;;
23866;SDS011;12114;53.404;-1.502;2023-08-06T13:20:08;2.75;;;1.40;;
23866;SDS011;12114;53.404;-1.502;2023-08-06T13:22:54;3.03;;;1.20;;
23866;SDS011;12114;53.404;-1.502;2023-08-06T13:25:38;1.60;;;1.17;;
23866;SDS011;12114;53.404;-1.502;2023-08-06T13:28:22;3.35;;;1.30;;
23866;SDS011;12114;53.404;-1.502;2023-08-06T13:31:06;2.40;;;1.08;;
23866;SDS011;12114;53.404;-1.502;2023-08-06T13:33:50;2.33;;;1.30;;
23866;SDS011;12114;53.404;-1.502;2023-08-06T13:36:34;2.75;;;1.60;;
23866;SDS011;12114;53.404;-1.502;2023-08-06T13:39:18;5.03;;;1.15;;
23866;SDS011;12114;53.404;-1.502;2023-08-06T13:42:03;2.65;;;1.50;;
23866;SDS011;12114;53.404;-1.502;2023-08-06T13:44:47;3.35;;;1.20;;
23866;SDS011;12114;53.404;-1.502;2023-08-06T13:47:31;1.95;;;1.25;;
23866;SDS011;12114;53.404;-1.502;2023-08-06T13:50:15;1.73;;;1.30;;
23866;SDS011;12114;53.404;-1.502;2023-08-06T13:52:59;2.38;;;1.23;;
23866;SDS011;12114;53.404;-1.502;2023-08-06T13:55:43;2.92;;;1.40;;
23866;SDS011;12114;53.404;-1.502;2023-08-06T13:58:27;2.03;;;1.30;;
23866;SDS011;12114;53.404;-1.502;2023-08-06T14:01:12;2.28;;;1.40;;
23866;SDS011;12114;53.404;-1.502;2023-08-06T14:03:56;1.73;;;1.30;;
23866;SDS011;12114;53.404;-1.502;2023-08-06T14:06:40;1.90;;;1.35;;
23866;SDS011;12114;53.404;-1.502;2023-08-06T14:09:24;2.80;;;1.10;;
23866;SDS011;12114;53.404;-1.502;2023-08-06T14:12:08;2.17;;;1.00;;
23866;SDS011;12114;53.404;-1.502;2023-08-06T14:14:52;1.92;;;1.30;;
23866;SDS011;12114;53.404;-1.502;2023-08-06T14:17:36;3.38;;;1.20;;
23866;SDS011;12114;53.404;-1.502;2023-08-06T14:20:20;1.85;;;1.33;;
23866;SDS011;12114;53.404;-1.502;2023-08-06T14:23:04;3.45;;;1.65;;
23866;SDS011;12114;53.404;-1.502;2023-08-06T14:25:48;1.95;;;1.20;;
23866;SDS011;12114;53.404;-1.502;2023-08-06T14:28:32;1.83;;;1.23;;
23866;SDS011;12114;53.404;-1.502;2023-08-06T14:31:16;3.28;;;1.45;;
23866;SDS011;12114;53.404;-1.502;2023-08-06T14:34:00;2.67;;;1.40;;
23866;SDS011;12114;53.404;-1.502;2023-08-06T14:36:44;3.17;;;1.48;;
23866;SDS011;12114;53.404;-1.502;2023-08-06T14:39:28;2.03;;;1.13;;
23866;SDS011;12114;53.404;-1.502;2023-08-06T14:42:12;2.95;;;1.63;;
23866;SDS011;12114;53.404;-1.502;2023-08-06T14:44:56;1.65;;;1.38;;
23866;SDS011;12114;53.404;-1.502;2023-08-06T14:47:40;2.88;;;1.50;;
23866;SDS011;12114;53.404;-1.502;2023-08-06T14:50:24;3.78;;;1.60;;
23866;SDS011;12114;53.404;-1.502;2023-08-06T14:53:08;2.80;;;1.88;;
23866;SDS011;12114;53.404;-1.502;2023-08-06T14:55:54;2.35;;;1.65;;
23866;SDS011;12114;53.404;-1.502;2023-08-06T14:58:38;3.42;;;1.85;;
23866;SDS011;12114;53.404;-1.502;2023-08-06T15:01:22;3.53;;;2.03;;
23866;SDS011;12114;53.404;-1.502;2023-08-06T15:04:05;3.60;;;2.38;;
23866;SDS011;12114;53.404;-1.502;2023-08-06T15:06:49;3.70;;;2.53;;
23866;SDS011;12114;53.404;-1.502;2023-08-06T15:09:33;4.63;;;2.33;;
23866;SDS011;12114;53.404;-1.502;2023-08-06T15:12:17;3.97;;;2.20;;
23866;SDS011;12114;53.404;-1.502;2023-08-06T15:15:02;4.22;;;2.35;;
23866;SDS011;12114;53.404;-1.502;2023-08-06T15:17:45;6.25;;;2.47;;
23866;SDS011;12114;53.404;-1.502;2023-08-06T15:20:29;3.60;;;1.83;;
23866;SDS011;12114;53.404;-1.502;2023-08-06T15:23:13;3.88;;;1.80;;
23866;SDS011;12114;53.404;-1.502;2023-08-06T15:25:58;3.92;;;2.30;;
23866;SDS011;12114;53.404;-1.502;2023-08-06T15:28:41;4.03;;;1.42;;
23866;SDS011;12114;53.404;-1.502;2023-08-06T15:31:27;2.70;;;1.42;;
23866;SDS011;12114;53.404;-1.502;2023-08-06T15:34:18;4.35;;;1.42;;
23866;SDS011;12114;53.404;-1.502;2023-08-06T15:37:02;1.90;;;1.40;;
23866;SDS011;12114;53.404;-1.502;2023-08-06T15:39:47;3.60;;;1.73;;
23866;SDS011;12114;53.404;-1.502;2023-08-06T15:42:31;1.48;;;1.17;;
23866;SDS011;12114;53.404;-1.502;2023-08-06T15:45:15;3.45;;;1.33;;
23866;SDS011;12114;53.404;-1.502;2023-08-06T15:47:59;2.05;;;1.13;;
23866;SDS011;12114;53.404;-1.502;2023-08-06T15:50:43;2.20;;;1.00;;
23866;SDS011;12114;53.404;-1.502;2023-08-06T15:53:26;1.50;;;1.17;;
23866;SDS011;12114;53.404;-1.502;2023-08-06T15:56:10;1.85;;;1.30;;
23866;SDS011;12114;53.404;-1.502;2023-08-06T15:58:54;1.65;;;0.57;;
23866;SDS011;12114;53.404;-1.502;2023-08-06T16:01:38;1.58;;;0.55;;
23866;SDS011;12114;53.404;-1.502;2023-08-06T16:04:22;1.83;;;0.40;;
23866;SDS011;12114;53.404;-1.502;2023-08-06T16:07:06;1.20;;;0.60;;
23866;SDS011;12114;53.404;-1.502;2023-08-06T16:09:50;1.45;;;0.60;;
23866;SDS011;12114;53.404;-1.502;2023-08-06T16:12:34;0.80;;;0.55;;
23866;SDS011;12114;53.404;-1.502;2023-08-06T16:15:18;1.23;;;0.70;;
23866;SDS011;12114;53.404;-1.502;2023-08-06T16:18:03;2.00;;;0.60;;
23866;SDS011;12114;53.404;-1.502;2023-08-06T16:20:47;2.28;;;0.68;;
23866;SDS011;12114;53.404;-1.502;2023-08-06T16:23:31;2.38;;;1.00;;
23866;SDS011;12114;53.404;-1.502;2023-08-06T16:26:15;3.25;;;0.93;;